createdAt,value
2023-05-10T00:00:29.301Z,11.25
2023-05-10T00:02:55.881Z,8.93
2023-05-10T00:05:22.477Z,7.97
2023-05-10T00:07:49.047Z,9.48
2023-05-10T00:10:16.063Z,8.52
2023-05-10T00:12:44.002Z,9.48
2023-05-10T00:15:13.182Z,9.82
2023-05-10T00:17:39.924Z,7.93
2023-05-10T00:20:11.246Z,9.18
2023-05-10T00:22:40.294Z,10.13
2023-05-10T00:25:08.066Z,8.77
2023-05-10T00:27:37.222Z,7.25
2023-05-10T00:30:04.192Z,8.30
2023-05-10T00:32:34.298Z,7.65
2023-05-10T00:35:00.926Z,6.00
2023-05-10T00:37:29.707Z,7.28
2023-05-10T00:39:56.728Z,6.03
2023-05-10T00:42:25.888Z,5.15
2023-05-10T00:44:54.516Z,5.35
2023-05-10T00:47:26.061Z,5.25
2023-05-10T00:49:56.446Z,5.63
2023-05-10T00:52:24.541Z,6.80
2023-05-10T00:54:58.433Z,6.32
2023-05-10T00:57:25.553Z,4.75
2023-05-10T00:59:54.808Z,5.38
2023-05-10T01:02:21.548Z,5.97
2023-05-10T01:04:50.946Z,6.68
2023-05-10T01:07:25.687Z,5.37
2023-05-10T01:09:52.433Z,7.55
2023-05-10T01:12:32.053Z,8.75
2023-05-10T01:14:58.869Z,8.35
2023-05-10T01:17:25.717Z,8.25
2023-05-10T01:19:52.479Z,8.25
2023-05-10T01:22:36.540Z,7.38
2023-05-10T01:25:27.469Z,7.03
2023-05-10T01:28:02.751Z,7.75
2023-05-10T01:31:06.789Z,8.50
2023-05-10T01:33:43.501Z,7.88
2023-05-10T01:36:26.811Z,7.60
2023-05-10T01:39:21.242Z,7.75
2023-05-10T01:41:55.414Z,7.63
2023-05-10T01:44:33.916Z,7.10
2023-05-10T01:47:28.691Z,8.15
2023-05-10T01:50:05.435Z,6.85
2023-05-10T01:52:39.259Z,6.70
2023-05-10T01:55:13.620Z,7.03
2023-05-10T01:57:43.194Z,9.52
2023-05-10T02:00:14.541Z,8.52
2023-05-10T02:02:49.891Z,10.57
2023-05-10T02:05:18.098Z,11.00
2023-05-10T02:07:45.795Z,11.48
2023-05-10T02:10:16.304Z,10.60
2023-05-10T02:12:46.834Z,11.43
2023-05-10T02:15:17.623Z,8.43
2023-05-10T02:17:48.621Z,10.68
2023-05-10T02:20:18.116Z,11.48
2023-05-10T02:22:49.881Z,11.15
2023-05-10T02:25:21.149Z,10.88
2023-05-10T02:27:53.091Z,11.32
2023-05-10T02:30:24.469Z,12.45
2023-05-10T02:32:53.989Z,11.43
2023-05-10T02:35:28.233Z,14.13
2023-05-10T02:37:55.871Z,14.95
2023-05-10T02:40:28.645Z,14.68
2023-05-10T02:43:03.480Z,14.80
2023-05-10T02:45:55.102Z,12.30
2023-05-10T02:48:21.807Z,14.25
2023-05-10T02:50:52.168Z,17.35
2023-05-10T02:53:44.007Z,14.18
2023-05-10T02:56:18.100Z,19.10
2023-05-10T02:58:44.872Z,17.23
2023-05-10T03:01:11.607Z,16.65
2023-05-10T03:03:47.530Z,16.80
2023-05-10T03:06:14.493Z,19.67
2023-05-10T03:08:41.154Z,17.73
2023-05-10T03:11:38.447Z,18.20
2023-05-10T03:14:10.134Z,18.60
2023-05-10T03:17:07.147Z,16.05
2023-05-10T03:19:44.844Z,18.63
2023-05-10T03:22:13.174Z,20.40
2023-05-10T03:24:44.139Z,21.00
2023-05-10T03:27:13.639Z,18.38
2023-05-10T03:29:40.836Z,21.40
2023-05-10T03:32:07.519Z,19.52
2023-05-10T03:34:43.496Z,17.95
2023-05-10T03:37:15.172Z,18.88
2023-05-10T03:39:42.285Z,16.58
2023-05-10T03:42:12.811Z,16.70
2023-05-10T03:44:41.637Z,19.58
2023-05-10T03:47:09.290Z,16.70
2023-05-10T03:49:38.145Z,15.95
2023-05-10T03:52:07.303Z,14.65
2023-05-10T03:54:34.552Z,16.00
2023-05-10T03:57:05.818Z,14.48
2023-05-10T03:59:34.925Z,16.30
2023-05-10T04:02:04.632Z,13.07
2023-05-10T04:04:31.284Z,13.85
2023-05-10T04:06:58.698Z,12.82
2023-05-10T04:09:26.501Z,14.25
2023-05-10T04:11:55.670Z,15.02
2023-05-10T04:14:27.884Z,12.57
2023-05-10T04:16:54.513Z,12.18
2023-05-10T04:19:21.179Z,12.50
2023-05-10T04:21:57.104Z,12.10
2023-05-10T04:24:35.600Z,14.27
2023-05-10T04:27:04.617Z,10.85
2023-05-10T04:29:36.533Z,16.00
2023-05-10T04:32:05.364Z,16.35
2023-05-10T04:34:32.323Z,12.25
2023-05-10T04:37:04.212Z,13.25
2023-05-10T04:39:32.230Z,12.85
2023-05-10T04:42:01.793Z,13.30
2023-05-10T04:44:28.655Z,12.85
2023-05-10T04:46:55.249Z,13.05
2023-05-10T04:49:22.595Z,12.32
2023-05-10T04:51:49.141Z,15.50
2023-05-10T04:54:15.869Z,14.77
2023-05-10T04:56:42.423Z,14.40
2023-05-10T04:59:09.105Z,13.13
2023-05-10T05:01:35.738Z,13.65
2023-05-10T05:04:02.565Z,15.90
2023-05-10T05:06:29.196Z,16.95
2023-05-10T05:08:55.806Z,13.65
2023-05-10T05:11:22.361Z,14.82
2023-05-10T05:13:48.946Z,15.32
2023-05-10T05:16:15.903Z,14.35
2023-05-10T05:18:42.484Z,16.35
2023-05-10T05:21:19.829Z,15.38
2023-05-10T05:23:46.960Z,19.88
2023-05-10T05:26:13.614Z,20.27
2023-05-10T05:28:40.557Z,16.33
2023-05-10T05:31:10.977Z,18.95
2023-05-10T05:33:38.054Z,22.23
2023-05-10T05:36:06.275Z,19.98
2023-05-10T05:38:33.199Z,18.73
2023-05-10T05:40:59.761Z,21.13
2023-05-10T05:43:26.466Z,18.73
2023-05-10T05:45:54.783Z,19.30
2023-05-10T05:48:21.778Z,18.65
2023-05-10T05:50:48.431Z,20.08
2023-05-10T05:53:15.299Z,19.48
2023-05-10T05:55:51.278Z,21.02
2023-05-10T05:58:17.840Z,15.95
2023-05-10T06:00:44.525Z,16.33
2023-05-10T06:03:11.464Z,20.50
2023-05-10T06:05:38.188Z,14.70
2023-05-10T06:08:04.994Z,15.15
2023-05-10T06:10:31.589Z,17.80
2023-05-10T06:12:58.220Z,18.02
2023-05-10T06:15:24.845Z,20.67
2023-05-10T06:17:51.888Z,20.63
2023-05-10T06:20:18.670Z,22.10
2023-05-10T06:22:45.407Z,22.35
2023-05-10T06:25:12.361Z,22.95
2023-05-10T06:27:38.932Z,25.00
2023-05-10T06:30:12.997Z,21.85
2023-05-10T06:32:42.396Z,19.75
2023-05-10T06:35:09.539Z,22.30
2023-05-10T06:37:36.081Z,19.35
2023-05-10T06:40:02.726Z,23.80
2023-05-10T06:42:29.310Z,22.38
2023-05-10T06:44:55.939Z,20.45
2023-05-10T06:47:22.943Z,24.83
2023-05-10T06:49:49.538Z,25.48
2023-05-10T06:52:16.321Z,24.23
2023-05-10T06:54:43.028Z,25.60
2023-05-10T06:57:23.324Z,26.55
2023-05-10T06:59:57.070Z,29.80
2023-05-10T07:02:23.819Z,28.92
2023-05-10T07:04:51.295Z,26.85
2023-05-10T07:07:18.084Z,29.13
2023-05-10T07:09:46.905Z,27.27
2023-05-10T07:12:15.354Z,31.35
2023-05-10T07:14:43.040Z,30.30
2023-05-10T07:17:09.877Z,32.35
2023-05-10T07:19:36.833Z,25.58
2023-05-10T07:22:03.640Z,28.27
2023-05-10T07:24:32.015Z,27.85
2023-05-10T07:26:58.594Z,28.63
2023-05-10T07:29:25.190Z,26.25
2023-05-10T07:31:51.754Z,26.48
2023-05-10T07:34:18.365Z,26.30
2023-05-10T07:36:45.032Z,26.70
2023-05-10T07:39:16.189Z,23.95
2023-05-10T07:41:45.131Z,25.10
2023-05-10T07:44:11.659Z,26.55
2023-05-10T07:46:38.377Z,21.77
2023-05-10T07:49:05.513Z,22.10
2023-05-10T07:51:32.612Z,21.88
2023-05-10T07:53:59.213Z,21.77
2023-05-10T07:56:33.544Z,17.27
2023-05-10T07:59:01.051Z,19.27
2023-05-10T08:01:31.067Z,17.25
2023-05-10T08:03:57.671Z,16.33
2023-05-10T08:06:24.449Z,16.30
2023-05-10T08:08:51.496Z,16.25
2023-05-10T08:11:18.559Z,14.95
2023-05-10T08:13:49.746Z,15.38
2023-05-10T08:16:17.576Z,15.80
2023-05-10T08:18:46.196Z,16.55
2023-05-10T08:21:12.882Z,14.38
2023-05-10T08:23:39.438Z,14.43
2023-05-10T08:26:06.499Z,15.30
2023-05-10T08:28:33.099Z,14.23
2023-05-10T08:30:59.716Z,17.73
2023-05-10T08:33:26.757Z,16.45
2023-05-10T08:35:53.387Z,15.82
2023-05-10T08:38:20.032Z,12.57
2023-05-10T08:40:48.081Z,12.23
2023-05-10T08:43:18.627Z,13.27
2023-05-10T08:45:48.957Z,13.35
2023-05-10T08:48:17.341Z,13.82
2023-05-10T08:50:45.888Z,13.98
2023-05-10T08:53:15.492Z,16.38
2023-05-10T08:55:43.569Z,19.65
2023-05-10T08:58:10.518Z,21.58
2023-05-10T09:00:38.471Z,18.25
2023-05-10T09:03:06.598Z,19.95
2023-05-10T09:05:33.493Z,21.58
2023-05-10T09:08:01.473Z,21.33
2023-05-10T09:10:29.034Z,20.15
2023-05-10T09:12:59.332Z,19.92
2023-05-10T09:15:26.519Z,19.02
2023-05-10T09:17:53.299Z,21.98
2023-05-10T09:20:20.239Z,19.33
2023-05-10T09:22:46.946Z,22.38
2023-05-10T09:25:16.468Z,20.85
2023-05-10T09:27:47.175Z,19.63
2023-05-10T09:30:23.793Z,21.48
2023-05-10T09:32:51.405Z,20.98
2023-05-10T09:35:20.034Z,20.75
2023-05-10T09:37:49.300Z,21.40
2023-05-10T09:40:21.359Z,22.23
2023-05-10T09:42:56.702Z,19.98
2023-05-10T09:45:25.598Z,21.25
2023-05-10T09:47:52.797Z,19.77
2023-05-10T09:50:21.379Z,20.25
2023-05-10T09:52:49.119Z,20.17
2023-05-10T09:55:19.049Z,21.30
2023-05-10T09:57:46.835Z,18.80
2023-05-10T10:00:18.777Z,22.38
2023-05-10T10:02:56.296Z,19.38
2023-05-10T10:05:29.714Z,18.90
2023-05-10T10:07:58.425Z,20.77
2023-05-10T10:10:28.962Z,18.98
2023-05-10T10:12:56.634Z,17.98
2023-05-10T10:15:24.018Z,19.52
2023-05-10T10:17:51.892Z,15.65
2023-05-10T10:20:23.160Z,20.90
2023-05-10T10:22:50.149Z,24.58
2023-05-10T10:25:18.534Z,18.85
2023-05-10T10:27:54.243Z,19.63
2023-05-10T10:30:37.237Z,19.52
2023-05-10T10:33:32.108Z,21.55
2023-05-10T10:36:03.473Z,22.02
2023-05-10T10:38:48.419Z,21.92
2023-05-10T10:41:30.083Z,20.50
2023-05-10T10:44:25.955Z,23.37
2023-05-10T10:47:01.824Z,21.58
2023-05-10T10:49:28.895Z,20.05
2023-05-10T10:52:34.699Z,22.63
2023-05-10T10:55:19.086Z,22.08
2023-05-10T10:57:47.065Z,18.70
2023-05-10T11:00:29.218Z,23.50
2023-05-10T11:03:19.580Z,20.88
2023-05-10T11:05:47.696Z,20.42
2023-05-10T11:08:31.383Z,20.65
2023-05-10T11:11:01.146Z,20.50
2023-05-10T11:13:29.063Z,19.95
2023-05-10T11:15:57.871Z,19.10
2023-05-10T11:18:30.152Z,20.15
2023-05-10T11:23:40.743Z,19.50
2023-05-10T11:26:11.858Z,20.48
2023-05-10T11:28:43.577Z,17.17
2023-05-10T11:31:10.704Z,20.17
2023-05-10T11:33:44.822Z,20.75
2023-05-10T11:36:19.882Z,20.45
2023-05-10T11:38:47.823Z,21.60
2023-05-10T11:41:16.338Z,17.33
2023-05-10T11:43:43.565Z,16.40
2023-05-10T11:46:14.121Z,14.05
2023-05-10T11:48:41.977Z,13.75
2023-05-10T11:51:12.165Z,13.07
2023-05-10T11:53:39.100Z,15.13
2023-05-10T11:56:10.167Z,15.00
2023-05-10T11:58:38.701Z,14.05
2023-05-10T12:01:07.291Z,13.73
2023-05-10T12:03:34.988Z,14.00
2023-05-10T12:06:02.878Z,12.77
2023-05-10T12:08:30.896Z,11.85
2023-05-10T12:11:11.203Z,11.73
2023-05-10T12:13:41.974Z,12.48
2023-05-10T12:16:26.545Z,11.95
2023-05-10T12:18:57.078Z,10.30
2023-05-10T12:21:24.032Z,11.73
2023-05-10T12:23:53.776Z,11.15
2023-05-10T12:26:29.482Z,13.35
2023-05-10T12:28:56.528Z,12.07
2023-05-10T12:31:23.372Z,10.20
2023-05-10T12:33:50.326Z,9.23
2023-05-10T12:36:18.769Z,11.00
2023-05-10T12:38:49.615Z,9.35
2023-05-10T12:41:18.167Z,8.73
2023-05-10T12:43:46.260Z,8.98
2023-05-10T12:46:17.967Z,9.25
2023-05-10T12:48:46.300Z,7.60
2023-05-10T12:51:16.116Z,7.63
2023-05-10T12:53:45.146Z,8.23
2023-05-10T12:56:12.716Z,7.07
2023-05-10T12:58:39.562Z,7.32
2023-05-10T13:01:06.579Z,8.40
2023-05-10T13:03:33.383Z,5.88
2023-05-10T13:06:00.035Z,7.53
2023-05-10T13:08:26.718Z,6.47
2023-05-10T13:10:53.366Z,6.50
2023-05-10T13:13:19.965Z,7.25
2023-05-10T13:15:46.593Z,6.60
2023-05-10T13:18:13.277Z,6.60
2023-05-10T13:20:39.937Z,5.82
2023-05-10T13:23:06.670Z,6.20
2023-05-10T13:25:35.114Z,6.32
2023-05-10T13:28:01.768Z,6.97
2023-05-10T13:30:29.629Z,7.20
2023-05-10T13:32:56.261Z,7.30
2023-05-10T13:35:23.062Z,7.35
2023-05-10T13:37:51.967Z,6.55
2023-05-10T13:40:18.849Z,8.32
2023-05-10T13:42:45.625Z,8.43
2023-05-10T13:45:13.236Z,7.30
2023-05-10T13:47:40.074Z,7.38
2023-05-10T13:50:07.473Z,7.03
2023-05-10T13:52:34.383Z,7.63
2023-05-10T13:55:00.930Z,7.70
2023-05-10T13:57:31.097Z,8.40
2023-05-10T13:59:58.182Z,7.10
2023-05-10T14:02:25.502Z,6.80
2023-05-10T14:04:52.340Z,7.75
2023-05-10T14:07:19.295Z,7.60
2023-05-10T14:09:45.910Z,6.45
2023-05-10T14:12:12.509Z,7.72
2023-05-10T14:14:39.163Z,7.53
2023-05-10T14:17:06.126Z,7.00
2023-05-10T14:19:34.865Z,6.75
2023-05-10T14:22:01.467Z,8.35
2023-05-10T14:24:28.147Z,7.43
2023-05-10T14:26:54.909Z,6.25
2023-05-10T14:29:22.152Z,5.63
2023-05-10T14:31:49.004Z,5.85
2023-05-10T14:34:15.726Z,5.57
2023-05-10T14:36:42.373Z,6.60
2023-05-10T14:39:10.791Z,6.63
2023-05-10T14:41:37.981Z,9.13
2023-05-10T14:44:04.593Z,7.18
2023-05-10T14:46:31.628Z,6.60
2023-05-10T14:48:58.243Z,8.50
2023-05-10T14:51:24.861Z,7.20
2023-05-10T14:53:51.448Z,7.75
2023-05-10T14:56:18.142Z,8.20
2023-05-10T14:58:44.833Z,7.10
2023-05-10T15:01:12.140Z,7.43
2023-05-10T15:03:39.154Z,8.30
2023-05-10T15:06:06.662Z,6.70
2023-05-10T15:08:33.254Z,5.70
2023-05-10T15:10:59.873Z,5.90
2023-05-10T15:13:26.712Z,6.57
2023-05-10T15:15:53.382Z,6.57
2023-05-10T15:18:20.077Z,6.32
2023-05-10T15:20:46.678Z,6.63
2023-05-10T15:23:13.396Z,6.75
2023-05-10T15:25:40.310Z,7.72
2023-05-10T15:28:06.950Z,7.38
2023-05-10T15:30:33.560Z,6.97
2023-05-10T15:33:00.286Z,8.00
2023-05-10T15:35:27.713Z,6.25
2023-05-10T15:37:54.275Z,8.30
2023-05-10T15:40:20.889Z,5.53
2023-05-10T15:42:47.557Z,4.85
2023-05-10T15:45:14.254Z,5.93
2023-05-10T15:47:41.084Z,4.75
2023-05-10T15:50:08.289Z,6.93
2023-05-10T15:52:35.970Z,8.07
2023-05-10T15:55:03.426Z,5.65
2023-05-10T15:57:30.418Z,4.47
2023-05-10T15:59:57.496Z,6.68
2023-05-10T16:02:24.246Z,6.97
2023-05-10T16:04:51.518Z,7.40
2023-05-10T16:07:18.167Z,6.63
2023-05-10T16:09:44.865Z,9.25
2023-05-10T16:12:14.427Z,6.57
2023-05-10T16:14:41.061Z,6.47
2023-05-10T16:17:09.152Z,6.53
2023-05-10T16:19:42.602Z,7.07
2023-05-10T16:22:09.319Z,5.82
2023-05-10T16:24:38.026Z,6.53
2023-05-10T16:27:07.343Z,6.70
2023-05-10T16:29:36.496Z,6.45
2023-05-10T16:32:08.098Z,7.32
2023-05-10T16:37:06.273Z,6.30
2023-05-10T16:39:32.881Z,6.03
2023-05-10T16:41:59.487Z,7.00
2023-05-10T16:44:28.574Z,7.45
2023-05-10T16:46:55.520Z,7.95
2023-05-10T16:49:23.666Z,8.75
2023-05-10T16:51:54.238Z,8.93
2023-05-10T16:54:21.847Z,8.15
2023-05-10T16:56:48.457Z,9.02
2023-05-10T16:59:15.096Z,6.18
2023-05-10T17:01:55.976Z,6.25
2023-05-10T17:04:23.184Z,6.78
2023-05-10T17:06:53.378Z,7.93
2023-05-10T17:09:20.530Z,5.85
2023-05-10T17:11:47.080Z,6.03
2023-05-10T17:14:14.367Z,6.00
2023-05-10T17:16:43.169Z,5.20
2023-05-10T17:19:13.577Z,5.40
2023-05-10T17:21:46.231Z,6.13
2023-05-10T17:24:15.800Z,4.88
2023-05-10T17:26:44.797Z,5.38
2023-05-10T17:29:13.834Z,4.90
2023-05-10T17:31:45.320Z,5.13
2023-05-10T17:34:11.926Z,6.20
2023-05-10T17:36:56.082Z,5.07
2023-05-10T17:39:23.930Z,5.85
2023-05-10T17:41:56.464Z,5.50
2023-05-10T17:44:28.231Z,6.10
2023-05-10T17:47:04.900Z,5.45
2023-05-10T17:49:33.701Z,5.57
2023-05-10T17:52:00.260Z,6.00
2023-05-10T17:54:29.566Z,5.80
2023-05-10T17:56:57.879Z,6.28
2023-05-10T17:59:24.503Z,4.90
2023-05-10T18:01:56.704Z,5.93
2023-05-10T18:04:25.728Z,5.60
2023-05-10T18:07:00.589Z,4.97
2023-05-10T18:09:28.116Z,6.63
2023-05-10T18:11:57.352Z,5.97
2023-05-10T18:14:39.952Z,5.30
2023-05-10T18:17:17.871Z,5.28
2023-05-10T18:19:44.495Z,5.07
2023-05-10T18:22:11.281Z,5.25
2023-05-10T18:24:39.476Z,5.50
2023-05-10T18:27:12.656Z,5.15
2023-05-10T18:29:42.180Z,5.45
2023-05-10T18:32:14.455Z,4.97
2023-05-10T18:37:11.250Z,3.50
2023-05-10T18:39:40.624Z,4.43
2023-05-10T18:42:10.165Z,5.03
2023-05-10T18:44:39.842Z,5.70
2023-05-10T18:47:06.576Z,5.05
2023-05-10T18:49:33.128Z,4.97
2023-05-10T18:52:02.224Z,4.60
2023-05-10T18:54:29.675Z,4.60
2023-05-10T18:56:59.418Z,4.88
2023-05-10T18:59:30.530Z,4.18
2023-05-10T19:01:57.698Z,8.27
2023-05-10T19:04:31.858Z,4.50
2023-05-10T19:06:59.503Z,4.40
2023-05-10T19:09:26.953Z,4.90
2023-05-10T19:11:53.590Z,4.15
2023-05-10T19:14:22.573Z,4.28
2023-05-10T19:17:01.314Z,4.82
2023-05-10T19:19:31.065Z,3.97
2023-05-10T19:22:03.622Z,4.47
2023-05-10T19:24:33.755Z,4.28
2023-05-10T19:27:03.590Z,4.88
2023-05-10T19:29:32.614Z,4.32
2023-05-10T19:32:00.358Z,4.95
2023-05-10T19:34:31.771Z,4.88
2023-05-10T19:36:58.334Z,4.10
2023-05-10T19:39:24.995Z,4.43
2023-05-10T19:41:51.657Z,4.22
2023-05-10T19:44:18.328Z,5.18
2023-05-10T19:46:45.535Z,5.07
2023-05-10T19:49:12.157Z,5.78
2023-05-10T19:51:39.657Z,4.03
2023-05-10T19:54:06.259Z,5.65
2023-05-10T19:56:35.034Z,5.25
2023-05-10T19:59:03.822Z,3.80
2023-05-10T20:01:32.515Z,4.00
2023-05-10T20:04:01.980Z,4.25
2023-05-10T20:06:28.776Z,4.22
2023-05-10T20:08:58.266Z,3.70
2023-05-10T20:11:25.839Z,4.18
2023-05-10T20:14:01.750Z,3.83
2023-05-10T20:16:31.409Z,4.13
2023-05-10T20:18:58.249Z,4.47
2023-05-10T20:21:33.351Z,3.85
2023-05-10T20:24:07.547Z,3.63
2023-05-10T20:26:38.127Z,5.53
2023-05-10T20:29:06.009Z,3.28
2023-05-10T20:31:35.132Z,3.88
2023-05-10T20:34:04.384Z,4.18
2023-05-10T20:36:33.234Z,5.05
2023-05-10T20:39:02.490Z,3.90
2023-05-10T20:41:36.609Z,7.63
2023-05-10T20:44:07.707Z,6.88
2023-05-10T20:46:37.574Z,5.15
2023-05-10T20:49:04.582Z,4.78
2023-05-10T20:51:44.686Z,5.38
2023-05-10T20:54:11.265Z,3.80
2023-05-10T20:56:40.469Z,4.43
2023-05-10T20:59:07.057Z,4.60
2023-05-10T21:01:36.332Z,4.30
2023-05-10T21:04:03.490Z,4.22
2023-05-10T21:06:32.716Z,3.65
2023-05-10T21:08:59.308Z,4.03
2023-05-10T21:11:26.016Z,4.18
2023-05-10T21:13:52.714Z,4.10
2023-05-10T21:16:20.042Z,4.80
2023-05-10T21:18:52.979Z,5.53
2023-05-10T21:21:19.613Z,6.85
2023-05-10T21:23:46.765Z,5.53
2023-05-10T21:26:13.674Z,9.88
2023-05-10T21:28:44.006Z,5.32
2023-05-10T21:31:15.474Z,5.35
2023-05-10T21:33:42.173Z,6.15
2023-05-10T21:36:09.373Z,5.07
2023-05-10T21:38:40.432Z,4.20
2023-05-10T21:41:10.539Z,4.75
2023-05-10T21:43:37.147Z,5.22
2023-05-10T21:46:10.382Z,6.50
2023-05-10T21:48:36.996Z,5.82
2023-05-10T21:51:03.646Z,7.68
2023-05-10T21:53:30.343Z,8.30
2023-05-10T21:56:01.191Z,9.15
2023-05-10T21:58:27.755Z,6.75
2023-05-10T22:00:59.041Z,8.10
2023-05-10T22:03:26.245Z,7.35
2023-05-10T22:05:52.982Z,6.97
2023-05-10T22:08:19.620Z,6.72
2023-05-10T22:10:46.195Z,7.10
2023-05-10T22:13:12.839Z,8.18
2023-05-10T22:15:39.447Z,7.47
2023-05-10T22:18:08.480Z,7.75
2023-05-10T22:20:35.032Z,7.68
2023-05-10T22:23:04.648Z,7.18
2023-05-10T22:25:33.666Z,8.70
2023-05-10T22:28:03.874Z,7.25
2023-05-10T22:30:33.256Z,7.03
2023-05-10T22:33:05.223Z,7.28
2023-05-10T22:35:31.890Z,8.38
2023-05-10T22:38:01.070Z,8.57
2023-05-10T22:40:29.470Z,8.10
2023-05-10T22:42:56.010Z,7.57
2023-05-10T22:45:22.601Z,7.88
2023-05-10T22:47:50.447Z,8.20
2023-05-10T22:50:19.449Z,7.93
2023-05-10T22:52:46.259Z,7.60
2023-05-10T22:55:12.867Z,8.10
2023-05-10T22:57:41.801Z,7.93
2023-05-10T23:00:11.504Z,8.05
2023-05-10T23:02:41.126Z,8.40
2023-05-10T23:05:17.454Z,8.05
2023-05-10T23:07:44.044Z,7.40
2023-05-10T23:10:13.962Z,8.70
2023-05-10T23:12:40.552Z,7.95
2023-05-10T23:15:07.520Z,7.15
2023-05-10T23:17:34.197Z,7.47
2023-05-10T23:20:01.006Z,7.75
2023-05-10T23:22:29.893Z,7.50
2023-05-10T23:24:58.057Z,8.32
2023-05-10T23:27:30.850Z,7.93
2023-05-10T23:29:57.983Z,10.82
2023-05-10T23:32:33.533Z,8.70
2023-05-10T23:35:03.965Z,11.88
2023-05-10T23:37:30.513Z,10.88
2023-05-10T23:39:57.203Z,12.23
2023-05-10T23:42:23.759Z,11.25
2023-05-10T23:44:55.605Z,11.95
2023-05-10T23:47:22.151Z,11.60
2023-05-10T23:49:50.053Z,13.95
2023-05-10T23:52:24.922Z,13.73
2023-05-10T23:54:55.937Z,14.15
2023-05-10T23:57:24.891Z,13.45
2023-05-10T23:59:53.807Z,14.13
